Terminal Aerodrome Forecast
Issued by NWS Cleveland, OH

Home | Current Version | Previous Version | Graphics & Text | Print | Product List | Glossary On
Versions: 1 2 3 4 5 6 7 8 9 10 11 12 13 14 15 16 17 18 19 20 21 22 23 24 25 26 27 28 29 30 31 32 33 34 35 36 37 38 39 40 41
000
FTUS41 KCLE 011700
TAFCLE
TAF
KCLE 011740Z 0118/0224 21004KT 2SM -SN BR BKN012 OVC028
      TEMPO 0119/0122 3/4SM -SN BKN008
     FM012200 27005KT 3SM -SN OVC020
     FM020200 27007KT 6SM -SN OVC025
     FM020800 26011KT P6SM OVC025
     FM021400 28012G20KT P6SM BKN020=

USA.gov is the U.S. government's official web portal to all federal, state and local government web resources and services.